sensor_id;sensor_type;location;lat;lon;timestamp;pressure;altitude;pressure_sealevel;temperature;humidity
62976;BME280;49071;0.000;0.000;2023-05-16T06:15:58;100542.56;;;19.27;44.44
62976;BME280;49071;0.000;0.000;2023-05-16T06:18:58;100554.00;;;19.26;44.69
62976;BME280;49071;0.000;0.000;2023-05-16T06:21:58;100558.34;;;19.27;44.50
62976;BME280;49071;0.000;0.000;2023-05-16T06:24:58;100569.72;;;19.28;44.56
62976;BME280;49071;0.000;0.000;2023-05-16T06:27:59;100566.25;;;19.27;44.72
62976;BME280;49071;0.000;0.000;2023-05-16T06:30:59;100569.72;;;19.28;44.71
62976;BME280;49071;0.000;0.000;2023-05-16T06:33:59;100574.13;;;19.27;44.78
62976;BME280;49071;0.000;0.000;2023-05-16T06:36:59;100580.13;;;19.29;44.67
62976;BME280;49071;0.000;0.000;2023-05-16T06:40:02;100583.44;;;19.33;44.85
62976;BME280;49071;0.000;0.000;2023-05-16T06:43:03;100588.81;;;19.31;44.91
62976;BME280;49071;0.000;0.000;2023-05-16T06:46:03;100596.84;;;19.28;45.02
62976;BME280;49071;0.000;0.000;2023-05-16T06:49:03;100614.41;;;19.28;45.15
62976;BME280;49071;0.000;0.000;2023-05-16T06:52:04;100618.75;;;19.29;45.05
62976;BME280;49071;0.000;0.000;2023-05-16T06:55:04;100624.78;;;19.31;45.04
62976;BME280;49071;0.000;0.000;2023-05-16T06:58:04;100627.41;;;19.31;45.25
62976;BME280;49071;0.000;0.000;2023-05-16T07:01:05;100632.66;;;19.31;44.95
62976;BME280;49071;0.000;0.000;2023-05-16T07:04:06;100633.50;;;19.31;45.24
62976;BME280;49071;0.000;0.000;2023-05-16T07:07:06;100636.03;;;19.33;45.26
62976;BME280;49071;0.000;0.000;2023-05-16T07:10:08;100635.13;;;19.34;45.16
62976;BME280;49071;0.000;0.000;2023-05-16T07:13:08;100634.19;;;19.35;44.93
62976;BME280;49071;0.000;0.000;2023-05-16T07:16:08;100639.34;;;19.37;45.20
62976;BME280;49071;0.000;0.000;2023-05-16T07:19:08;100645.56;;;19.35;45.08
62976;BME280;49071;0.000;0.000;2023-05-16T07:22:09;100656.19;;;19.34;45.43
62976;BME280;49071;0.000;0.000;2023-05-16T07:25:10;100642.16;;;19.33;45.06
62976;BME280;49071;0.000;0.000;2023-05-16T07:28:14;100642.09;;;19.35;45.25
62976;BME280;49071;0.000;0.000;2023-05-16T07:31:14;100664.13;;;19.32;45.17
62976;BME280;49071;0.000;0.000;2023-05-16T07:34:16;100663.28;;;19.32;45.16
62976;BME280;49071;0.000;0.000;2023-05-16T07:37:16;100665.13;;;19.30;45.33
62976;BME280;49071;0.000;0.000;2023-05-16T07:40:17;100674.97;;;19.26;45.05
62976;BME280;49071;0.000;0.000;2023-05-16T07:43:19;100681.00;;;19.28;45.21
62976;BME280;49071;0.000;0.000;2023-05-16T07:46:19;100676.59;;;19.29;45.05
62976;BME280;49071;0.000;0.000;2023-05-16T07:49:20;100681.84;;;19.29;45.26
62976;BME280;49071;0.000;0.000;2023-05-16T07:52:20;100675.75;;;19.28;45.15
62976;BME280;49071;0.000;0.000;2023-05-16T07:55:21;100674.91;;;19.28;45.37
62976;BME280;49071;0.000;0.000;2023-05-16T07:58:21;100679.31;;;19.27;45.64
62976;BME280;49071;0.000;0.000;2023-05-16T08:01:21;100683.47;;;19.31;45.51
62976;BME280;49071;0.000;0.000;2023-05-16T08:04:22;100687.63;;;19.35;45.83
62976;BME280;49071;0.000;0.000;2023-05-16T08:07:22;100689.28;;;19.38;46.36
62976;BME280;49071;0.000;0.000;2023-05-16T08:10:23;100689.78;;;19.45;46.49
62976;BME280;49071;0.000;0.000;2023-05-16T08:13:23;100685.38;;;19.45;46.33
62976;BME280;49071;0.000;0.000;2023-05-16T08:16:23;100702.78;;;19.48;46.54
62976;BME280;49071;0.000;0.000;2023-05-16T08:19:23;100704.47;;;19.49;46.08
62976;BME280;49071;0.000;0.000;2023-05-16T08:22:24;100689.38;;;19.52;46.11
62976;BME280;49071;0.000;0.000;2023-05-16T08:25:24;100687.19;;;19.61;47.21
62976;BME280;49071;0.000;0.000;2023-05-16T08:28:25;100686.16;;;19.65;46.93
62976;BME280;49071;0.000;0.000;2023-05-16T08:31:25;100683.09;;;19.72;47.15
62976;BME280;49071;0.000;0.000;2023-05-16T08:34:25;100687.50;;;19.72;46.92
62976;BME280;49071;0.000;0.000;2023-05-16T08:37:25;100693.34;;;19.77;47.41
62976;BME280;49071;0.000;0.000;2023-05-16T08:40:26;100686.06;;;19.82;47.32
62976;BME280;49071;0.000;0.000;2023-05-16T08:43:27;100683.44;;;19.82;47.46
62976;BME280;49071;0.000;0.000;2023-05-16T08:46:27;100686.75;;;19.86;47.36
62976;BME280;49071;0.000;0.000;2023-05-16T08:49:28;100697.47;;;19.98;47.41
62976;BME280;49071;0.000;0.000;2023-05-16T08:52:29;100695.84;;;19.96;47.90
62976;BME280;49071;0.000;0.000;2023-05-16T08:55:30;100697.81;;;19.92;47.76
62976;BME280;49071;0.000;0.000;2023-05-16T08:58:30;100699.50;;;19.93;47.63
62976;BME280;49071;0.000;0.000;2023-05-16T09:01:30;100704.69;;;19.95;47.60
62976;BME280;49071;0.000;0.000;2023-05-16T09:04:31;100700.50;;;19.91;47.58
62976;BME280;49071;0.000;0.000;2023-05-16T09:07:31;100709.34;;;19.90;47.52
62976;BME280;49071;0.000;0.000;2023-05-16T09:10:31;100708.50;;;19.89;47.88
62976;BME280;49071;0.000;0.000;2023-05-16T09:13:31;100716.22;;;19.92;47.60
62976;BME280;49071;0.000;0.000;2023-05-16T09:16:32;100715.28;;;19.93;47.85
62976;BME280;49071;0.000;0.000;2023-05-16T09:19:38;100727.44;;;19.96;47.85
62976;BME280;49071;0.000;0.000;2023-05-16T09:22:51;100726.44;;;19.98;47.83
62976;BME280;49071;0.000;0.000;2023-05-16T09:25:52;100720.13;;;20.01;48.23
62976;BME280;49071;0.000;0.000;2023-05-16T09:28:52;100720.22;;;19.99;48.02
62976;BME280;49071;0.000;0.000;2023-05-16T09:31:53;100718.38;;;20.01;48.01
62976;BME280;49071;0.000;0.000;2023-05-16T09:35:03;100722.59;;;20.04;48.24
62976;BME280;49071;0.000;0.000;2023-05-16T09:38:03;100730.44;;;20.05;48.45
62976;BME280;49071;0.000;0.000;2023-05-16T09:41:04;100732.97;;;20.07;48.77
62976;BME280;49071;0.000;0.000;2023-05-16T09:44:04;100733.75;;;20.09;48.01
62976;BME280;49071;0.000;0.000;2023-05-16T09:47:05;100742.38;;;20.11;48.70
62976;BME280;49071;0.000;0.000;2023-05-16T09:50:06;100741.47;;;20.12;48.07
62976;BME280;49071;0.000;0.000;2023-05-16T09:53:06;100743.25;;;20.12;48.35
62976;BME280;49071;0.000;0.000;2023-05-16T09:56:09;100747.13;;;20.04;48.28
62976;BME280;49071;0.000;0.000;2023-05-16T09:59:10;100753.50;;;20.00;47.94
62976;BME280;49071;0.000;0.000;2023-05-16T10:02:10;100760.56;;;20.00;48.10
62976;BME280;49071;0.000;0.000;2023-05-16T10:05:11;100767.69;;;19.98;48.15
62976;BME280;49071;0.000;0.000;2023-05-16T10:08:12;100761.72;;;19.94;47.83
62976;BME280;49071;0.000;0.000;2023-05-16T10:11:12;100758.34;;;19.92;47.93
62976;BME280;49071;0.000;0.000;2023-05-16T10:14:13;100756.72;;;19.90;47.75
62976;BME280;49071;0.000;0.000;2023-05-16T10:17:15;100767.56;;;19.84;48.03
62976;BME280;49071;0.000;0.000;2023-05-16T10:20:15;100772.09;;;19.81;48.07
62976;BME280;49071;0.000;0.000;2023-05-16T10:23:19;100780.31;;;19.75;48.27
62976;BME280;49071;0.000;0.000;2023-05-16T10:26:20;100780.53;;;19.71;48.18
62976;BME280;49071;0.000;0.000;2023-05-16T10:29:21;100787.34;;;19.75;48.03
62976;BME280;49071;0.000;0.000;2023-05-16T10:32:22;100797.56;;;19.81;47.98
62976;BME280;49071;0.000;0.000;2023-05-16T10:35:22;100804.44;;;19.84;48.11
62976;BME280;49071;0.000;0.000;2023-05-16T10:38:22;100796.47;;;19.85;48.08
62976;BME280;49071;0.000;0.000;2023-05-16T10:41:23;100807.69;;;19.89;47.94
62976;BME280;49071;0.000;0.000;2023-05-16T10:44:24;100808.78;;;19.85;47.96
62976;BME280;49071;0.000;0.000;2023-05-16T10:47:25;100814.25;;;19.80;47.92
62976;BME280;49071;0.000;0.000;2023-05-16T10:50:35;100807.47;;;19.76;47.97
62976;BME280;49071;0.000;0.000;2023-05-16T10:53:36;100813.81;;;19.72;48.12
62976;BME280;49071;0.000;0.000;2023-05-16T10:56:36;100820.88;;;19.71;48.27
62976;BME280;49071;0.000;0.000;2023-05-16T10:59:40;100812.28;;;19.68;48.36
62976;BME280;49071;0.000;0.000;2023-05-16T11:02:41;100814.13;;;19.66;48.23
62976;BME280;49071;0.000;0.000;2023-05-16T11:05:41;100809.88;;;19.63;48.29
62976;BME280;49071;0.000;0.000;2023-05-16T11:08:56;100807.25;;;19.63;47.87
62976;BME280;49071;0.000;0.000;2023-05-16T11:11:57;100824.00;;;19.61;47.81
62976;BME280;49071;0.000;0.000;2023-05-16T11:14:58;100824.09;;;19.59;47.91
62976;BME280;49071;0.000;0.000;2023-05-16T11:21:07;100827.72;;;19.56;47.77
62976;BME280;49071;0.000;0.000;2023-05-16T11:24:26;100831.19;;;19.57;47.82
62976;BME280;49071;0.000;0.000;2023-05-16T11:27:30;100834.00;;;19.54;47.58
62976;BME280;49071;0.000;0.000;2023-05-16T11:30:31;100838.41;;;19.53;47.57
62976;BME280;49071;0.000;0.000;2023-05-16T11:33:32;100841.97;;;19.52;47.80
62976;BME280;49071;0.000;0.000;2023-05-16T11:36:34;100846.28;;;19.53;47.68
62976;BME280;49071;0.000;0.000;2023-05-16T11:39:34;100841.13;;;19.52;47.40
62976;BME280;49071;0.000;0.000;2023-05-16T11:42:36;100849.06;;;19.50;47.66
62976;BME280;49071;0.000;0.000;2023-05-16T11:45:37;100854.34;;;19.50;47.68
62976;BME280;49071;0.000;0.000;2023-05-16T11:48:37;100849.06;;;19.50;47.49
62976;BME280;49071;0.000;0.000;2023-05-16T11:51:40;100850.81;;;19.51;47.51
62976;BME280;49071;0.000;0.000;2023-05-16T11:54:40;100855.38;;;19.48;47.71
62976;BME280;49071;0.000;0.000;2023-05-16T11:57:41;100857.66;;;19.54;47.69
62976;BME280;49071;0.000;0.000;2023-05-16T12:00:48;100869.91;;;19.55;47.46
62976;BME280;49071;0.000;0.000;2023-05-16T12:03:55;100877.81;;;19.55;47.19
62976;BME280;49071;0.000;0.000;2023-05-16T12:06:57;100878.50;;;19.58;47.50
62976;BME280;49071;0.000;0.000;2023-05-16T12:09:58;100877.66;;;19.58;47.59
62976;BME280;49071;0.000;0.000;2023-05-16T12:12:58;100872.31;;;19.59;47.58
62976;BME280;49071;0.000;0.000;2023-05-16T12:15:58;100870.59;;;19.58;47.86
62976;BME280;49071;0.000;0.000;2023-05-16T12:18:59;100874.94;;;19.59;47.58
62976;BME280;49071;0.000;0.000;2023-05-16T12:22:00;100869.66;;;19.59;47.59
62976;BME280;49071;0.000;0.000;2023-05-16T12:25:20;100872.13;;;19.64;47.45
62976;BME280;49071;0.000;0.000;2023-05-16T12:31:58;100873.50;;;19.71;47.43
62976;BME280;49071;0.000;0.000;2023-05-16T13:04:01;100849.22;;;20.33;48.62
62976;BME280;49071;0.000;0.000;2023-05-16T13:07:02;100851.75;;;20.34;48.54
62976;BME280;49071;0.000;0.000;2023-05-16T13:10:03;100853.50;;;20.35;48.15
62976;BME280;49071;0.000;0.000;2023-05-16T13:13:03;100854.38;;;20.18;48.26
62976;BME280;49071;0.000;0.000;2023-05-16T13:16:04;100860.19;;;20.08;48.38
62976;BME280;49071;0.000;0.000;2023-05-16T13:19:05;100857.97;;;20.00;48.29
62976;BME280;49071;0.000;0.000;2023-05-16T13:22:05;100870.69;;;19.92;48.36
62976;BME280;49071;0.000;0.000;2023-05-16T13:25:06;100879.75;;;19.86;48.74
62976;BME280;49071;0.000;0.000;2023-05-16T13:28:07;100871.72;;;19.89;48.69
62976;BME280;49071;0.000;0.000;2023-05-16T13:31:07;100880.59;;;19.87;48.58
62976;BME280;49071;0.000;0.000;2023-05-16T13:34:07;100885.19;;;19.83;48.73
62976;BME280;49071;0.000;0.000;2023-05-16T13:37:07;100891.22;;;19.85;48.24
62976;BME280;49071;0.000;0.000;2023-05-16T13:40:07;100894.00;;;19.82;48.60
62976;BME280;49071;0.000;0.000;2023-05-16T13:43:09;100896.50;;;19.85;48.53
62976;BME280;49071;0.000;0.000;2023-05-16T13:46:09;100901.75;;;19.85;48.42
62976;BME280;49071;0.000;0.000;2023-05-16T13:49:09;100896.41;;;19.87;48.46
62976;BME280;49071;0.000;0.000;2023-05-16T13:52:10;100901.44;;;19.91;48.44
62976;BME280;49071;0.000;0.000;2023-05-16T13:55:10;100898.81;;;19.91;48.59
62976;BME280;49071;0.000;0.000;2023-05-16T13:58:10;100908.41;;;19.92;48.54
62976;BME280;49071;0.000;0.000;2023-05-16T14:01:10;100905.63;;;19.95;48.72
62976;BME280;49071;0.000;0.000;2023-05-16T14:04:12;100907.41;;;19.95;48.57
62976;BME280;49071;0.000;0.000;2023-05-16T14:07:12;100908.31;;;19.94;48.34
62976;BME280;49071;0.000;0.000;2023-05-16T14:10:12;100912.66;;;19.95;48.48
62976;BME280;49071;0.000;0.000;2023-05-16T14:13:12;100912.56;;;19.96;48.37
62976;BME280;49071;0.000;0.000;2023-05-16T14:16:13;100918.63;;;19.98;48.55
62976;BME280;49071;0.000;0.000;2023-05-16T14:19:13;100914.22;;;19.99;48.46
62976;BME280;49071;0.000;0.000;2023-05-16T14:22:13;100921.25;;;19.98;48.39
62976;BME280;49071;0.000;0.000;2023-05-16T14:25:13;100924.81;;;19.97;48.39
62976;BME280;49071;0.000;0.000;2023-05-16T14:28:13;100929.22;;;19.97;48.44
62976;BME280;49071;0.000;0.000;2023-05-16T14:31:14;100929.22;;;19.97;48.54
62976;BME280;49071;0.000;0.000;2023-05-16T14:34:14;100923.25;;;19.93;48.39
62976;BME280;49071;0.000;0.000;2023-05-16T14:37:14;100928.63;;;19.92;48.56
62976;BME280;49071;0.000;0.000;2023-05-16T14:40:15;100919.78;;;19.93;48.33
62976;BME280;49071;0.000;0.000;2023-05-16T14:43:15;100917.00;;;19.96;48.61
62976;BME280;49071;0.000;0.000;2023-05-16T14:46:16;100919.63;;;19.96;48.66
62976;BME280;49071;0.000;0.000;2023-05-16T14:49:16;100927.59;;;19.94;48.79
62976;BME280;49071;0.000;0.000;2023-05-16T14:52:16;100919.78;;;19.93;48.34
62976;BME280;49071;0.000;0.000;2023-05-16T14:55:17;100911.63;;;19.97;48.61
62976;BME280;49071;0.000;0.000;2023-05-16T14:58:18;100916.00;;;19.98;48.78
62976;BME280;49071;0.000;0.000;2023-05-16T15:01:18;100907.22;;;19.98;48.44
62976;BME280;49071;0.000;0.000;2023-05-16T15:04:18;100909.00;;;19.97;48.32
62976;BME280;49071;0.000;0.000;2023-05-16T15:07:19;100911.41;;;20.02;48.76
62976;BME280;49071;0.000;0.000;2023-05-16T15:10:19;100905.22;;;20.03;48.69
62976;BME280;49071;0.000;0.000;2023-05-16T15:13:19;100905.31;;;20.01;48.95
62976;BME280;49071;0.000;0.000;2023-05-16T15:16:20;100913.22;;;20.01;48.54
62976;BME280;49071;0.000;0.000;2023-05-16T15:19:20;100906.22;;;20.00;48.78
62976;BME280;49071;0.000;0.000;2023-05-16T15:22:20;100905.31;;;20.01;48.94
62976;BME280;49071;0.000;0.000;2023-05-16T15:25:21;100908.69;;;20.03;48.56
62976;BME280;49071;0.000;0.000;2023-05-16T15:28:21;100904.97;;;20.08;48.40
62976;BME280;49071;0.000;0.000;2023-05-16T15:31:21;100903.91;;;20.12;48.54
62976;BME280;49071;0.000;0.000;2023-05-16T15:34:21;100899.63;;;20.09;48.80
62976;BME280;49071;0.000;0.000;2023-05-16T15:37:21;100890.03;;;20.08;48.81
62976;BME280;49071;0.000;0.000;2023-05-16T15:40:22;100896.22;;;20.07;48.95
62976;BME280;49071;0.000;0.000;2023-05-16T15:43:22;100891.72;;;20.09;48.93
62976;BME280;49071;0.000;0.000;2023-05-16T15:46:22;100879.41;;;20.10;49.47
62976;BME280;49071;0.000;0.000;2023-05-16T15:49:23;100882.03;;;20.10;49.28
62976;BME280;49071;0.000;0.000;2023-05-16T15:52:23;100884.53;;;20.13;49.51
62976;BME280;49071;0.000;0.000;2023-05-16T15:55:23;100881.09;;;20.11;49.10
62976;BME280;49071;0.000;0.000;2023-05-16T15:58:23;100879.41;;;20.10;49.16
62976;BME280;49071;0.000;0.000;2023-05-16T16:01:23;100879.25;;;20.13;48.99
62976;BME280;49071;0.000;0.000;2023-05-16T16:04:23;100878.94;;;20.19;49.13
62976;BME280;49071;0.000;0.000;2023-05-16T16:07:24;100869.09;;;20.22;49.42
62976;BME280;49071;0.000;0.000;2023-05-16T16:10:24;100862.19;;;20.20;49.59
62976;BME280;49071;0.000;0.000;2023-05-16T16:13:26;100870.09;;;20.20;49.19
62976;BME280;49071;0.000;0.000;2023-05-16T16:16:26;100857.72;;;20.22;49.45
62976;BME280;49071;0.000;0.000;2023-05-16T16:19:26;100862.63;;;20.28;49.25
62976;BME280;49071;0.000;0.000;2023-05-16T16:22:26;100868.78;;;20.28;49.16
62976;BME280;49071;0.000;0.000;2023-05-16T16:25:26;100867.03;;;20.27;49.37
62976;BME280;49071;0.000;0.000;2023-05-16T16:28:27;100869.53;;;20.31;49.47
62976;BME280;49071;0.000;0.000;2023-05-16T16:31:27;100873.63;;;20.36;49.76
62976;BME280;49071;0.000;0.000;2023-05-16T16:34:27;100866.41;;;20.40;49.18
62976;BME280;49071;0.000;0.000;2023-05-16T16:37:27;100871.66;;;20.40;49.43
62976;BME280;49071;0.000;0.000;2023-05-16T16:40:27;100880.91;;;20.31;49.26
62976;BME280;49071;0.000;0.000;2023-05-16T16:43:28;100882.47;;;20.18;49.62
62976;BME280;49071;0.000;0.000;2023-05-16T16:46:28;100884.94;;;20.05;49.48
62976;BME280;49071;0.000;0.000;2023-05-16T16:49:28;100881.66;;;20.00;48.70
62976;BME280;49071;0.000;0.000;2023-05-16T16:52:30;100870.34;;;19.98;48.97
62976;BME280;49071;0.000;0.000;2023-05-16T16:55:30;100874.03;;;19.95;48.56
62976;BME280;49071;0.000;0.000;2023-05-16T16:58:30;100881.22;;;19.92;48.59
62976;BME280;49071;0.000;0.000;2023-05-16T17:01:30;100885.72;;;19.90;48.78
62976;BME280;49071;0.000;0.000;2023-05-16T17:04:31;100890.03;;;19.91;48.55
62976;BME280;49071;0.000;0.000;2023-05-16T17:07:33;100880.44;;;19.90;48.33
62976;BME280;49071;0.000;0.000;2023-05-16T17:10:34;100886.66;;;19.89;48.47
62976;BME280;49071;0.000;0.000;2023-05-16T17:13:34;100878.91;;;19.86;48.46
62976;BME280;49071;0.000;0.000;2023-05-16T17:16:36;100887.81;;;19.83;48.63
62976;BME280;49071;0.000;0.000;2023-05-16T17:19:37;100886.97;;;19.83;48.57
62976;BME280;49071;0.000;0.000;2023-05-16T17:22:37;100887.97;;;19.80;48.25
62976;BME280;49071;0.000;0.000;2023-05-16T17:25:38;100895.94;;;19.78;48.36
62976;BME280;49071;0.000;0.000;2023-05-16T17:28:38;100892.47;;;19.78;48.45
62976;BME280;49071;0.000;0.000;2023-05-16T17:31:38;100893.47;;;19.75;48.50
62976;BME280;49071;0.000;0.000;2023-05-16T17:34:38;100900.53;;;19.75;48.39
62976;BME280;49071;0.000;0.000;2023-05-16T17:37:39;100916.38;;;19.73;48.50
62976;BME280;49071;0.000;0.000;2023-05-16T17:40:40;100919.00;;;19.73;48.33
62976;BME280;49071;0.000;0.000;2023-05-16T17:43:40;100920.88;;;19.71;48.59
62976;BME280;49071;0.000;0.000;2023-05-16T17:46:41;100921.78;;;19.70;48.33
62976;BME280;49071;0.000;0.000;2023-05-16T17:49:41;100926.28;;;19.68;48.35
62976;BME280;49071;0.000;0.000;2023-05-16T17:52:42;100921.94;;;19.67;48.51
62976;BME280;49071;0.000;0.000;2023-05-16T17:55:43;100927.28;;;19.66;48.52
62976;BME280;49071;0.000;0.000;2023-05-16T17:58:43;100930.88;;;19.65;48.39
62976;BME280;49071;0.000;0.000;2023-05-16T18:01:44;100932.66;;;19.64;48.40
62976;BME280;49071;0.000;0.000;2023-05-16T18:04:45;100937.94;;;19.63;48.47
62976;BME280;49071;0.000;0.000;2023-05-16T18:07:47;100936.31;;;19.60;48.21
62976;BME280;49071;0.000;0.000;2023-05-16T18:10:47;100932.81;;;19.59;48.50
62976;BME280;49071;0.000;0.000;2023-05-16T18:13:47;100934.50;;;19.61;48.16
62976;BME280;49071;0.000;0.000;2023-05-16T18:16:47;100937.16;;;19.61;48.57
62976;BME280;49071;0.000;0.000;2023-05-16T18:19:48;100933.59;;;19.62;48.57
62976;BME280;49071;0.000;0.000;2023-05-16T18:22:48;100931.81;;;19.62;48.67
62976;BME280;49071;0.000;0.000;2023-05-16T18:25:50;100937.09;;;19.62;48.45
62976;BME280;49071;0.000;0.000;2023-05-16T18:28:50;100926.56;;;19.62;48.49
62976;BME280;49071;0.000;0.000;2023-05-16T18:31:50;100927.41;;;19.63;48.81
62976;BME280;49071;0.000;0.000;2023-05-16T18:34:51;100937.94;;;19.63;48.46
62976;BME280;49071;0.000;0.000;2023-05-16T18:37:52;100944.06;;;19.63;48.39
62976;BME280;49071;0.000;0.000;2023-05-16T18:40:52;100938.88;;;19.62;48.72
62976;BME280;49071;0.000;0.000;2023-05-16T18:43:52;100947.63;;;19.62;48.73
62976;BME280;49071;0.000;0.000;2023-05-16T18:46:52;100954.59;;;19.63;48.19
62976;BME280;49071;0.000;0.000;2023-05-16T18:49:52;100960.66;;;19.65;48.61
62976;BME280;49071;0.000;0.000;2023-05-16T18:52:53;100964.97;;;19.66;48.47
62976;BME280;49071;0.000;0.000;2023-05-16T18:55:56;100971.88;;;19.69;48.58
62976;BME280;49071;0.000;0.000;2023-05-16T18:58:56;100973.66;;;19.68;48.46
62976;BME280;49071;0.000;0.000;2023-05-16T19:01:56;100969.25;;;19.69;48.59
62976;BME280;49071;0.000;0.000;2023-05-16T19:04:56;100978.00;;;19.69;48.32
62976;BME280;49071;0.000;0.000;2023-05-16T19:07:56;100976.22;;;19.70;48.91
62976;BME280;49071;0.000;0.000;2023-05-16T19:10:57;100986.69;;;19.71;48.64
62976;BME280;49071;0.000;0.000;2023-05-16T19:13:57;100982.31;;;19.70;48.53
62976;BME280;49071;0.000;0.000;2023-05-16T19:16:57;100990.91;;;19.74;48.48
62976;BME280;49071;0.000;0.000;2023-05-16T19:19:57;100986.59;;;19.73;48.34
62976;BME280;49071;0.000;0.000;2023-05-16T19:22:58;100988.44;;;19.71;48.64
62976;BME280;49071;0.000;0.000;2023-05-16T19:25:58;100981.47;;;19.70;48.44
62976;BME280;49071;0.000;0.000;2023-05-16T19:28:59;100985.78;;;19.71;48.61
62976;BME280;49071;0.000;0.000;2023-05-16T19:31:59;100996.25;;;19.72;48.79
62976;BME280;49071;0.000;0.000;2023-05-16T19:34:59;100996.25;;;19.72;48.55
62976;BME280;49071;0.000;0.000;2023-05-16T19:38:00;101010.28;;;19.73;48.75
62976;BME280;49071;0.000;0.000;2023-05-16T19:41:00;101001.53;;;19.72;48.40
62976;BME280;49071;0.000;0.000;2023-05-16T19:44:00;101013.75;;;19.73;48.88
62976;BME280;49071;0.000;0.000;2023-05-16T19:47:00;101025.22;;;19.72;48.94
62976;BME280;49071;0.000;0.000;2023-05-16T19:50:01;101012.06;;;19.72;48.74
62976;BME280;49071;0.000;0.000;2023-05-16T19:53:01;101023.38;;;19.74;48.96
62976;BME280;49071;0.000;0.000;2023-05-16T19:56:01;101020.75;;;19.74;48.64
62976;BME280;49071;0.000;0.000;2023-05-16T19:59:03;101020.75;;;19.74;48.81
62976;BME280;49071;0.000;0.000;2023-05-16T20:02:03;101026.84;;;19.75;48.86
62976;BME280;49071;0.000;0.000;2023-05-16T20:05:03;101029.47;;;19.75;48.81
62976;BME280;49071;0.000;0.000;2023-05-16T20:08:03;101030.47;;;19.72;48.50
62976;BME280;49071;0.000;0.000;2023-05-16T20:11:04;101034.91;;;19.72;48.63
62976;BME280;49071;0.000;0.000;2023-05-16T20:14:05;101037.59;;;19.70;48.98
62976;BME280;49071;0.000;0.000;2023-05-16T20:17:05;101040.31;;;19.69;48.91
62976;BME280;49071;0.000;0.000;2023-05-16T20:20:06;101036.88;;;19.67;49.20
62976;BME280;49071;0.000;0.000;2023-05-16T20:23:06;101036.97;;;19.65;48.79
62976;BME280;49071;0.000;0.000;2023-05-16T20:26:06;101045.81;;;19.64;48.89
62976;BME280;49071;0.000;0.000;2023-05-16T20:29:06;101044.06;;;19.63;48.99
62976;BME280;49071;0.000;0.000;2023-05-16T20:32:06;101049.34;;;19.63;48.70
62976;BME280;49071;0.000;0.000;2023-05-16T20:35:07;101053.72;;;19.63;48.98
62976;BME280;49071;0.000;0.000;2023-05-16T20:38:09;101056.34;;;19.63;49.07
62976;BME280;49071;0.000;0.000;2023-05-16T20:41:09;101055.50;;;19.62;49.01
62976;BME280;49071;0.000;0.000;2023-05-16T20:44:09;101062.53;;;19.62;48.93
62976;BME280;49071;0.000;0.000;2023-05-16T20:47:10;101063.44;;;19.61;48.86
62976;BME280;49071;0.000;0.000;2023-05-16T20:50:10;101071.44;;;19.59;48.58
